Latest Weather Observations for Cerberus

IDV60801

Issued at 8:32 am EST Thursday 1 October 2020 (issued every 10 minutes, with the page automatically refreshed every 10 minutes)

About weather observations | Map of weather stations | Latest weather observations for VIC | Other Formats
Station Details ID: 086361 Name: CERBERUS Lat: -38.36 Lon: 145.18 Height: 12.69 m
Data from the previous 72 hours. | See also: Recent months at Cerberus
Date/Time
EST
Temp
°C
App
Temp
°C
Dew
Point
°C
Rel
Hum
%
Delta-T
°C
Wind Press
QNH
hPa
Press
MSL
hPa
Rain since
9am
mm
Dir  Spd
km/h
Gust
km/h
Spd
kts
Gust
kts
01/08:30am 11.9 7.6 6.8 71 2.4 WNW 19 28 10 15 1015.6 1015.6 8.8
01/08:00am 11.1 6.6 7.0 76 1.9 WNW 20 30 11 16 1015.1 1015.1 8.8
01/07:30am 10.5 6.2 6.8 78 1.7 WNW 19 26 10 14 1014.8 1014.8 8.8
01/07:00am 9.9 5.6 6.8 81 1.5 WNW 19 26 10 14 1014.5 1014.5 8.8
01/06:30am 9.4 5.7 6.5 82 1.3 WNW 15 28 8 15 1013.9 1013.9 8.8
01/06:00am 9.3 5.2 6.4 82 1.3 WNW 17 26 9 14 1013.3 1013.4 8.8
01/05:30am 9.4 5.4 6.7 83 1.3 WNW 17 28 9 15 1012.8 1012.9 8.8
01/05:00am 9.6 5.7 7.0 84 1.2 WNW 17 28 9 15 1012.5 1012.6 8.8
01/04:30am 9.7 6.2 7.1 84 1.2 WNW 15 24 8 13 1012.0 1012.1 8.8
01/04:00am 9.8 5.5 7.2 84 1.2 WNW 19 32 10 17 1011.7 1011.8 8.8
01/03:30am 9.9 6.4 7.3 84 1.2 NW 15 24 8 13 1011.5 1011.6 8.8
01/03:00am 10.2 6.7 7.4 83 1.3 WNW 15 24 8 13 1011.3 1011.4 8.8
01/02:30am 10.4 6.6 7.6 83 1.3 WNW 17 26 9 14 1011.1 1011.2 8.8
01/02:00am 10.7 7.0 7.9 83 1.4 WNW 17 28 9 15 1010.9 1010.9 8.8
01/01:30am 11.0 7.0 8.4 84 1.3 WNW 19 28 10 15 1010.8 1010.8 8.8
01/01:00am 10.9 7.3 8.5 85 1.2 WNW 17 28 9 15 1010.5 1010.5 8.8
01/12:30am 10.9 8.1 8.7 86 1.1 WNW 13 20 7 11 1010.4 1010.4 8.8
01/12:00am 10.9 8.1 8.7 86 1.1 WNW 13 22 7 12 1010.2 1010.2 8.8
 
Date/Time
EST
Temp
°C
App
Temp
°C
Dew
Point
°C
Rel
Hum
%
Delta-T
°C
Wind Press
QNH
hPa
Press
MSL
hPa
Rain since
9am
mm
Dir  Spd
km/h
Gust
km/h
Spd
kts
Gust
kts
30/11:30pm 11.0 8.3 8.8 86 1.1 WNW 13 19 7 10 1010.0 1010.0 8.8
30/11:00pm 11.1 9.5 8.8 86 1.1 WNW 7 13 4 7 1009.7 1009.7 8.8
30/10:30pm 11.2 8.9 9.1 87 1.0 W 11 17 6 9 1009.4 1009.4 8.8
30/10:00pm 11.7 8.8 9.8 88 1.0 W 15 28 8 15 1009.3 1009.3 8.8
30/09:30pm 12.6 11.1 10.7 88 1.0 WNW 9 15 5 8 1008.8 1008.8 8.0
30/09:00pm 12.8 11.0 10.9 88 1.0 WNW 11 17 6 9 1008.7 1008.7 7.6
30/08:30pm 12.8 9.9 10.9 88 1.0 W 17 28 9 15 1008.5 1008.5 7.2
30/08:00pm 12.9 11.5 10.8 87 1.1 WNW 9 15 5 8 1007.9 1007.9 7.0
30/07:30pm 12.8 10.6 10.7 87 1.1 WNW 13 19 7 10 1007.9 1007.9 7.0
30/07:00pm 13.1 10.5 10.8 86 1.2 W 15 24 8 13 1007.5 1007.5 5.0
30/06:30pm 13.5 9.0 10.1 80 1.8 WNW 24 48 13 26 1006.9 1006.9 2.6
30/06:21pm 15.1 11.4 10.3 73 2.5 NW 20 46 11 25 1006.9 1006.9 1.4
30/06:00pm 16.1 13.3 10.0 67 3.2 NNW 15 24 8 13 1005.7 1005.7 0.2
30/05:30pm 16.3 13.6 10.4 68 3.1 NNW 15 26 8 14 1005.4 1005.4 0.2
30/05:00pm 15.4 13.6 11.0 75 2.4 N 11 20 6 11 1005.4 1005.4 0.2
30/04:30pm 15.5 12.0 10.3 71 2.7 NNW 19 32 10 17 1005.9 1005.9 0.2
30/04:00pm 17.4 13.8 9.8 61 4.0 NNW 19 33 10 18 1005.5 1005.5 0.0
30/03:30pm 18.0 14.8 9.9 59 4.3 NNW 17 28 9 15 1005.8 1005.8 0.0
30/03:00pm 17.7 14.4 9.6 59 4.3 NNW 17 28 9 15 1006.1 1006.1 0.0
30/02:30pm 16.9 14.3 9.3 61 4.0 NNW 13 24 7 13 1006.6 1006.6 0.0
30/02:00pm 16.8 14.4 10.0 64 3.6 NNW 13 22 7 12 1007.0 1007.0 0.0
30/01:30pm 16.1 14.4 9.8 66 3.3 NNW 9 17 5 9 1007.6 1007.6 0.0
30/01:00pm 16.3 13.9 10.2 67 3.2 NNW 13 24 7 13 1008.1 1008.1 0.0
30/12:30pm 16.5 14.1 9.9 65 3.5 NNW 13 24 7 13 1008.5 1008.5 0.0
30/12:00pm 16.2 12.9 9.6 65 3.4 NNW 17 37 9 20 1009.0 1009.0 0.0
30/11:30am 16.2 13.4 10.1 67 3.2 NNW 15 30 8 16 1009.4 1009.4 0.0
30/11:00am 16.1 12.6 10.2 68 3.1 N 19 33 10 18 1009.9 1009.9 0.0
30/10:30am 14.9 13.5 10.9 77 2.1 N 9 24 5 13 1010.6 1010.6 0.0
30/10:00am 14.5 13.2 11.3 81 1.7 NNE 9 17 5 9 1011.1 1011.2 0.0
30/09:30am 13.8 12.0 10.8 82 1.6 N 11 24 6 13 1011.5 1011.6 0.0
30/09:00am 13.2 10.9 10.6 84 1.4 N 13 22 7 12 1011.6 1011.7 1.0
30/08:30am 12.4 9.9 9.6 83 1.4 NNE 13 24 7 13 1012.2 1012.3 1.0
30/08:00am 12.8 10.7 9.6 81 1.6 N 11 24 6 13 1012.5 1012.6 0.8
30/07:30am 12.7 11.3 9.7 82 1.5 N 7 15 4 8 1012.6 1012.7 0.6
30/07:00am 12.6 11.5 9.8 83 1.4 N 6 9 3 5 1012.5 1012.6 0.6
30/06:30am 12.2 10.8 9.6 84 1.3 N 7 11 4 6 1012.4 1012.5 0.6
30/06:00am 12.1 10.9 9.7 85 1.2 NNW 6 9 3 5 1012.6 1012.7 0.6
30/05:30am 12.2 10.9 9.8 85 1.2 NNW 7 11 4 6 1012.8 1012.9 0.6
30/05:00am 11.7 10.3 9.4 86 1.2 NNW 7 13 4 7 1012.6 1012.7 0.4
30/04:30am 11.4 11.2 9.1 86 1.1 CALM 0 4 0 2 1012.3 1012.4 0.0
30/04:00am 11.5 10.6 9.1 85 1.2 NNE 4 6 2 3 1012.4 1012.5 0.0
30/03:30am 11.4 10.8 8.8 84 1.3 NNE 2 4 1 2 1012.4 1012.5 0.0
30/03:00am 11.6 11.0 8.8 83 1.4 NNE 2 4 1 2 1012.9 1013.0 0.0
30/02:30am 11.2 10.8 8.2 82 1.5 CALM 0 2 0 1 1013.2 1013.3 0.0
30/02:00am 11.5 11.1 8.4 81 1.5 CALM 0 0 0 0 1013.8 1013.8 0.0
30/01:30am 11.6 10.9 8.5 81 1.5 NNE 2 4 1 2 1014.0 1014.0 0.0
30/01:00am 12.1 11.1 8.8 80 1.6 NNE 4 6 2 3 1014.2 1014.2 0.0
30/12:30am 12.2 9.9 9.0 81 1.6 NE 11 17 6 9 1014.5 1014.5 0.0
30/12:00am 12.3 10.8 9.3 82 1.5 NNE 7 15 4 8 1015.2 1015.2 0.0
 
Date/Time
EST
Temp
°C
App
Temp
°C
Dew
Point
°C
Rel
Hum
%
Delta-T
°C
Wind Press
QNH
hPa
Press
MSL
hPa
Rain since
9am
mm
Dir  Spd
km/h
Gust
km/h
Spd
kts
Gust
kts
29/11:30pm 12.5 11.3 9.5 82 1.5 NNE 6 9 3 5 1015.7 1015.7 0.0
29/11:00pm 12.4 11.2 9.4 82 1.5 NE 6 11 3 6 1015.9 1015.9 0.0
29/10:30pm 12.4 11.0 9.4 82 1.5 NE 7 11 4 6 1016.1 1016.1 0.0
29/10:00pm 12.5 11.2 9.3 81 1.6 NE 6 9 3 5 1016.4 1016.4 0.0
29/09:30pm 12.8 11.4 9.4 80 1.7 ENE 7 13 4 7 1016.7 1016.7 0.0
29/09:00pm 13.2 12.4 9.5 78 1.9 E 4 7 2 4 1017.1 1017.1 0.0
29/08:30pm 13.6 12.7 9.1 74 2.3 ENE 4 6 2 3 1017.3 1017.3 0.0
29/08:00pm 13.7 12.5 8.1 69 2.8 NNW 4 4 2 2 1017.3 1017.3 0.0
29/07:30pm 13.3 12.7 8.8 74 2.3 NNW 2 4 1 2 1017.4 1017.4 0.0
29/07:00pm 14.3 14.1 9.1 71 2.6 CALM 0 2 0 1 1017.2 1017.2 0.0
29/06:30pm 15.1 14.6 9.5 69 2.9 NNW 2 4 1 2 1017.3 1017.3 0.0
29/06:00pm 15.9 15.1 9.6 66 3.3 NNW 4 6 2 3 1017.3 1017.3 0.0
29/05:30pm 16.5 15.7 9.7 64 3.6 NNW 4 9 2 5 1017.3 1017.3 0.0
29/05:00pm 17.0 15.6 9.4 61 4.0 NE 7 15 4 8 1017.1 1017.1 0.0
29/04:30pm 17.5 16.1 8.9 57 4.5 NE 6 13 3 7 1017.1 1017.1 0.0
29/04:00pm 18.0 16.0 8.6 54 4.8 NE 9 15 5 8 1017.2 1017.2 0.0
29/03:30pm 18.3 15.9 8.8 54 4.9 NE 11 19 6 10 1017.3 1017.3 0.0
29/03:00pm 18.2 15.2 9.3 56 4.7 ENE 15 20 8 11 1017.7 1017.7 0.0
29/02:30pm 17.7 15.4 9.1 57 4.5 ENE 11 17 6 9 1018.3 1018.3 0.0
29/02:00pm 17.7 15.3 8.8 56 4.6 ENE 11 20 6 11 1019.1 1019.1 0.0
29/01:30pm 17.3 14.9 8.7 57 4.4 ENE 11 17 6 9 1019.9 1019.9 0.0
29/01:00pm 16.8 14.7 8.2 57 4.4 NE 9 15 5 8 1020.7 1020.7 0.0
29/12:30pm 16.0 14.3 8.2 60 3.9 NE 7 13 4 7 1021.2 1021.2 0.0
29/12:00pm 15.2 13.4 8.0 62 3.6 NE 7 11 4 6 1021.8 1021.8 0.0
29/11:30am 14.4 12.6 8.1 66 3.1 NE 7 11 4 6 1022.5 1022.5 0.0
29/11:00am 13.7 12.0 8.3 70 2.7 NE 7 11 4 6 1022.9 1022.9 0.0
29/10:30am 12.0 10.0 7.1 72 2.4 NNE 7 13 4 7 1023.2 1023.2 0.0
29/10:00am 10.9 8.5 7.0 77 1.8 NE 9 15 5 8 1023.4 1023.4 0.0
29/09:30am 10.7 8.0 7.2 79 1.7 ENE 11 19 6 10 1023.7 1023.7 0.0
29/09:00am 10.0 7.3 7.3 83 1.3 NE 11 15 6 8 1024.6 1024.6 0.0
29/08:30am 9.5 7.2 7.4 87 1.0 NE 9 15 5 8 1025.1 1025.1 0.0
29/08:00am 8.3 5.8 6.6 89 0.8 NNE 9 17 5 9 1025.6 1025.6 0.0
29/07:30am 7.8 5.8 6.4 91 0.6 NE 6 13 3 7 1025.3 1025.3 0.0
29/07:00am 6.1 4.6 4.9 92 0.5 SE 2 4 1 2 1025.2 1025.2 0.0
29/06:30am 2.8 0.7 1.5 91 0.5 SE 2 4 1 2 1025.0 1025.0 0.0
29/06:00am 1.1 -0.9 -0.4 90 0.5 CALM 0 0 0 0 1024.5 1024.5 0.0
29/05:30am 1.4 -1.0 -0.1 90 0.5 SSE 2 2 1 1 1024.2 1024.2 0.0
29/05:00am 1.1 -0.9 -0.4 90 0.5 CALM 0 0 0 0 1024.1 1024.1 0.0
29/04:30am 0.3 -1.9 -1.3 89 0.6 CALM 0 0 0 0 1024.1 1024.1 0.0
29/04:00am 1.5 -0.5 -0.1 89 0.6 CALM 0 0 0 0 1024.2 1024.2 0.0
29/03:30am 1.1 -1.0 -0.5 89 0.6 CALM 0 0 0 0 1024.3 1024.3 0.0
29/03:00am 1.2 -0.8 -0.4 89 0.6 CALM 0 0 0 0 1024.3 1024.3 0.0
29/02:30am 1.8 -0.2 0.2 89 0.6 CALM 0 0 0 0 1024.6 1024.6 0.0
29/02:00am 2.2 0.3 0.4 88 0.7 CALM 0 0 0 0 1025.3 1025.3 0.0
29/01:30am 2.0 -0.3 0.2 88 0.7 SSE 2 2 1 1 1026.1 1026.1 0.0
29/01:00am 2.6 0.0 0.8 88 0.7 SSE 4 4 2 2 1026.1 1026.1 0.0
29/12:30am 2.3 0.4 0.4 87 0.7 CALM 0 0 0 0 1026.3 1026.3 0.0
29/12:00am 2.4 0.1 0.5 87 0.7 SSE 2 4 1 2 1026.4 1026.4 0.0
 
Date/Time
EST
Temp
°C
App
Temp
°C
Dew
Point
°C
Rel
Hum
%
Delta-T
°C
Wind Press
QNH
hPa
Press
MSL
hPa
Rain since
9am
mm
Dir  Spd
km/h
Gust
km/h
Spd
kts
Gust
kts
28/11:30pm 3.3 1.5 1.3 87 0.8 CALM 0 0 0 0 1026.3 1026.3 0.0
28/11:00pm 3.5 1.7 1.4 86 0.8 CALM 0 0 0 0 1026.5 1026.5 0.0
28/10:30pm 4.0 1.9 1.9 86 0.8 SSE 2 6 1 3 1026.8 1026.8 0.0
28/10:00pm 4.3 2.6 1.8 84 1.0 CALM 0 2 0 1 1026.9 1026.9 0.0
28/09:30pm 4.7 2.7 2.1 83 1.0 SSE 2 2 1 1 1027.2 1027.2 0.0
28/09:00pm 4.9 2.8 1.7 80 1.3 SSE 2 4 1 2 1027.1 1027.1 0.0
28/08:30pm 5.1 3.3 1.4 77 1.5 CALM 0 0 0 0 1027.5 1027.5 0.0
28/08:00pm 6.8 4.5 2.5 74 1.8 SSE 4 6 2 3 1027.3 1027.3 0.0
28/07:30pm 7.7 5.4 3.0 72 2.0 SSE 4 4 2 2 1027.3 1027.3 0.0
28/07:00pm 8.0 5.8 3.1 71 2.1 SSE 4 6 2 3 1027.0 1027.0 0.0
28/06:30pm 8.8 6.2 3.4 69 2.3 S 6 9 3 5 1026.9 1026.9 0.0
28/06:00pm 10.0 7.4 4.0 66 2.6 S 7 11 4 6 1026.9 1026.9 0.0
28/05:30pm 10.8 7.5 4.5 65 2.8 S 11 15 6 8 1026.8 1026.8 0.0
28/05:00pm 11.2 7.9 4.7 64 2.9 SSW 11 19 6 10 1026.9 1026.9 0.0
28/04:30pm 11.6 8.3 4.3 61 3.3 SSW 11 19 6 10 1026.8 1026.8 0.0
28/04:00pm 12.0 8.7 4.7 61 3.3 SSW 11 15 6 8 1026.7 1026.7 0.0
28/03:30pm 12.6 9.2 5.8 63 3.2 SW 13 17 7 9 1026.6 1026.6 0.0
28/03:00pm 12.5 9.3 5.0 60 3.4 SSW 11 20 6 11 1026.8 1026.8 0.0
28/02:30pm 12.5 8.8 4.7 59 3.6 SSW 13 19 7 10 1027.1 1027.1 0.0
28/02:00pm 12.1 8.8 4.6 60 3.4 S 11 20 6 11 1027.5 1027.5 0.0
28/01:30pm 12.6 9.0 5.1 60 3.5 S 13 17 7 9 1027.8 1027.8 0.0
28/01:00pm 12.7 10.2 4.9 59 3.6 S 7 13 4 7 1028.1 1028.1 0.0
28/12:30pm 12.2 9.3 4.4 59 3.5 SSW 9 19 5 10 1028.5 1028.5 0.0
28/12:00pm 11.7 8.6 3.5 57 3.6 S 9 17 5 9 1028.7 1028.7 0.0
28/11:30am 11.8 8.8 4.1 59 3.5 S 9 15 5 8 1028.9 1028.9 0.0
28/11:00am 11.5 8.2 4.5 62 3.1 SW 11 17 6 9 1029.3 1029.3 0.0
28/10:30am 11.3 8.7 4.1 61 3.2 WSW 7 15 4 8 1029.4 1029.4 0.0
28/10:00am 11.1 8.7 4.1 62 3.1 WSW 6 11 3 6 1029.6 1029.6 0.0
28/09:30am 10.9 7.9 3.9 62 3.1 SW 9 13 5 7 1029.6 1029.6 0.0
28/09:00am 10.7 8.1 4.2 64 2.9 SSW 7 15 4 8 1029.3 1029.3 0.0

Other formats

Comma delimited format used in spreadsheet applications
http://www.bom.gov.au/fwo/IDV60801/IDV60801.94898.axf

JavaScript Object Notation format (JSON) in row-major order
http://www.bom.gov.au/fwo/IDV60801/IDV60801.94898.json

Data quality

Most of these data are generated automatically and are frequently updated. Quality checks on data are not normally performed. It is possible for incorrect values to appear. Refer to information at About Latest Weather Observations and please check the disclaimer before using these data.